Time;durP1;ratioP1;P1;durP2;ratioP2;P2;SDS_P1;SDS_P2;PMS_P1;PMS_P2;Temp;Humidity;BMP_temperature;BMP_pressure;BME280_temperature;BME280_humidity;BME280_pressure;Samples;Min_cycle;Max_cycle;Signal;HPM_P1;HPM_P2
2024/04/22 00:00:54;;;;;;;0.30;0.20;;;;;;;5.50;70.84;100932.22;5417637;26;20479;-48
2024/04/22 00:03:20;;;;;;;0.30;0.17;;;;;;;5.51;71.01;100931.34;5417463;26;20479;-48
2024/04/22 00:05:54;;;;;;;0.30;0.20;;;;;;;5.52;70.52;100930.47;5417547;26;20589;-51
2024/04/22 00:08:21;;;;;;;0.30;0.10;;;;;;;5.48;70.87;100923.41;5417688;26;21099;-48
2024/04/22 00:10:48;;;;;;;0.30;0.10;;;;;;;5.41;71.25;100930.44;5417608;26;20479;-48
2024/04/22 00:13:15;;;;;;;0.30;0.20;;;;;;;5.35;71.85;100922.50;5417522;26;21059;-48
2024/04/22 00:15:41;;;;;;;0.30;0.10;;;;;;;5.31;72.46;100923.34;5417543;26;20467;-47
2024/04/22 00:18:08;;;;;;;0.30;0.10;;;;;;;5.29;72.39;100925.13;5417437;26;20468;-47
2024/04/22 00:20:39;;;;;;;0.30;0.17;;;;;;;5.25;72.60;100921.59;5417589;26;20470;-48
2024/04/22 00:23:05;;;;;;;0.30;0.20;;;;;;;5.22;72.87;100921.59;5417546;26;20475;-47
2024/04/22 00:25:32;;;;;;;0.30;0.20;;;;;;;5.14;73.27;100920.69;5393707;26;20511;-48
2024/04/22 00:27:59;;;;;;;0.30;0.20;;;;;;;5.15;72.62;100917.16;5417523;26;20503;-48
2024/04/22 00:30:25;;;;;;;0.30;0.20;;;;;;;5.11;72.72;100914.53;5417350;26;20483;-47
2024/04/22 00:32:52;;;;;;;0.30;0.20;;;;;;;5.13;73.17;100924.19;5417386;26;20498;-48
2024/04/22 00:35:18;;;;;;;0.30;0.20;;;;;;;5.08;73.28;100918.03;5417283;26;20531;-47
2024/04/22 00:37:45;;;;;;;0.30;0.20;;;;;;;5.13;73.20;100920.66;5415533;26;20459;-48
2024/04/22 00:40:12;;;;;;;0.30;0.20;;;;;;;5.09;73.76;100925.06;5406225;26;20476;-48
2024/04/22 00:42:43;;;;;;;0.30;0.10;;;;;;;5.05;74.13;100928.53;5404836;26;20988;-51
2024/04/22 00:45:10;;;;;;;0.30;0.10;;;;;;;5.04;74.21;100930.28;5417062;26;20467;-48
2024/04/22 00:47:37;;;;;;;0.30;0.20;;;;;;;4.97;74.92;100933.78;5417068;26;20455;-47
2024/04/22 00:50:07;;;;;;;0.30;0.10;;;;;;;5.06;73.49;100927.66;5415826;26;20470;-47
2024/04/22 00:52:33;;;;;;;0.30;0.20;;;;;;;5.09;73.04;100922.41;5416768;26;21052;-48
2024/04/22 00:55:00;;;;;;;0.30;0.10;;;;;;;5.00;73.29;100925.88;5416682;26;20842;-47
2024/04/22 00:57:27;;;;;;;0.53;0.53;;;;;;;5.01;72.85;100932.91;5414125;26;20467;-47
2024/04/22 00:59:54;;;;;;;0.30;0.10;;;;;;;4.96;73.11;100937.28;5396093;26;20524;-48
2024/04/22 01:02:21;;;;;;;0.30;0.10;;;;;;;5.05;72.88;100926.78;5416830;26;20475;-47
2024/04/22 01:04:48;;;;;;;0.30;0.10;;;;;;;5.24;73.00;100933.03;5416504;26;20521;-48
2024/04/22 01:07:15;;;;;;;0.30;0.10;;;;;;;4.99;72.63;100937.31;5416778;26;20884;-48
2024/04/22 01:09:42;;;;;;;0.30;0.10;;;;;;;5.24;72.35;100930.38;5416595;26;20511;-48
2024/04/22 01:12:08;;;;;;;0.30;0.10;;;;;;;5.35;71.46;100935.69;5416829;26;20520;-48
2024/04/22 01:14:35;;;;;;;0.30;0.10;;;;;;;5.20;71.54;100925.94;5416445;26;21022;-48
2024/04/22 01:17:02;;;;;;;0.30;0.20;;;;;;;5.16;71.99;100925.94;5416630;26;20829;-48
2024/04/22 01:19:28;;;;;;;0.30;0.13;;;;;;;5.28;72.58;100928.63;5416441;26;20518;-48
2024/04/22 01:21:55;;;;;;;0.30;0.10;;;;;;;5.37;71.66;100926.03;5392602;26;20455;-48
2024/04/22 01:24:22;;;;;;;0.30;0.20;;;;;;;5.27;70.75;100926.88;5416524;26;20471;-48
2024/04/22 01:26:50;;;;;;;0.30;0.20;;;;;;;5.06;71.40;100922.38;5416406;26;20531;-48
2024/04/22 01:29:16;;;;;;;0.30;0.10;;;;;;;5.16;71.43;100921.56;5416326;26;20826;-48
2024/04/22 01:31:43;;;;;;;0.30;0.10;;;;;;;4.83;71.88;100922.31;5416007;26;20964;-48
2024/04/22 01:34:09;;;;;;;0.30;0.13;;;;;;;4.98;71.40;100918.84;5415968;26;20930;-48
2024/04/22 01:36:40;;;;;;;0.30;0.10;;;;;;;4.74;72.58;100928.41;5416033;26;20467;-47
2024/04/22 01:39:10;;;;;;;0.30;0.10;;;;;;;4.65;73.32;100922.19;5415926;26;20479;-47
2024/04/22 01:41:37;;;;;;;0.30;0.10;;;;;;;4.86;72.73;100919.69;5416009;26;20546;-49
2024/04/22 01:44:03;;;;;;;0.30;0.20;;;;;;;4.86;73.08;100913.53;5416032;26;20535;-47
2024/04/22 01:46:30;;;;;;;0.30;0.20;;;;;;;4.76;73.01;100912.59;5415814;26;20467;-48
2024/04/22 01:48:57;;;;;;;0.30;0.20;;;;;;;4.97;72.77;100917.09;5416014;26;20458;-48
2024/04/22 01:51:23;;;;;;;0.30;0.20;;;;;;;4.81;73.12;100915.28;5415742;26;20475;-47
2024/04/22 01:53:50;;;;;;;0.30;0.10;;;;;;;4.62;73.99;100920.44;5415706;26;20482;-47
2024/04/22 01:56:16;;;;;;;0.30;0.10;;;;;;;4.58;74.74;100915.13;5407136;26;20465;-49
2024/04/22 01:58:44;;;;;;;0.30;0.20;;;;;;;4.58;75.11;100917.78;5400770;26;20462;-47
2024/04/22 02:01:11;;;;;;;0.30;0.20;;;;;;;4.66;74.49;100916.97;5416009;26;20482;-48
2024/04/22 02:03:37;;;;;;;0.30;0.20;;;;;;;4.51;75.87;100921.22;5419437;26;20538;-48
2024/04/22 02:06:04;;;;;;;0.30;0.17;;;;;;;4.18;79.36;100914.00;5419334;26;20526;-47
2024/04/22 02:08:30;;;;;;;0.30;0.10;;;;;;;4.14;80.99;100911.34;5419323;26;20507;-47
2024/04/22 02:10:57;;;;;;;0.30;0.10;;;;;;;4.02;81.94;100910.38;5419244;26;20593;-47
2024/04/22 02:13:24;;;;;;;0.30;0.10;;;;;;;3.93;83.25;100907.66;5419072;26;20565;-48
2024/04/22 02:15:51;;;;;;;0.30;0.10;;;;;;;3.76;84.63;100908.41;5395456;26;20895;-47
2024/04/22 02:18:17;;;;;;;0.30;0.20;;;;;;;3.68;85.93;100909.19;5419090;26;20462;-48
2024/04/22 02:20:44;;;;;;;0.30;0.20;;;;;;;3.51;86.65;100911.66;5419093;26;20478;-49
2024/04/22 02:23:11;;;;;;;0.30;0.20;;;;;;;3.51;87.32;100914.28;5419110;26;20538;-47
2024/04/22 02:25:37;;;;;;;0.30;0.20;;;;;;;3.40;88.72;100908.03;5419080;26;20459;-47
2024/04/22 02:28:05;;;;;;;0.30;0.13;;;;;;;3.33;89.37;100912.34;5419115;26;20561;-47
2024/04/22 02:30:31;;;;;;;0.30;0.10;;;;;;;3.30;89.52;100914.06;5418976;26;20518;-47
2024/04/22 02:32:58;;;;;;;0.30;0.20;;;;;;;3.03;90.98;100912.00;5418933;26;20459;-48
2024/04/22 02:35:24;;;;;;;0.30;0.10;;;;;;;2.92;91.09;100914.50;5418886;26;20547;-47
2024/04/22 02:37:51;;;;;;;0.30;0.20;;;;;;;2.87;90.88;100918.78;5418786;26;20987;-48
2024/04/22 02:40:17;;;;;;;0.30;0.10;;;;;;;2.73;91.97;100923.84;5418793;26;20463;-48
2024/04/22 02:42:44;;;;;;;0.30;0.10;;;;;;;2.80;92.17;100914.34;5418732;26;20503;-49
2024/04/22 02:45:11;;;;;;;0.30;0.10;;;;;;;2.76;92.60;100923.03;5418706;26;20525;-47
2024/04/22 02:47:37;;;;;;;0.30;0.20;;;;;;;2.86;92.68;100919.66;5418923;26;20519;-48
2024/04/22 02:50:05;;;;;;;0.30;0.10;;;;;;;2.67;92.80;100916.81;5418767;26;20475;-47
2024/04/22 02:52:31;;;;;;;0.30;0.20;;;;;;;2.73;92.80;100915.09;5419046;26;20577;-47
2024/04/22 02:54:58;;;;;;;0.30;0.20;;;;;;;2.71;92.16;100919.47;5418429;26;20856;-50
2024/04/22 02:57:24;;;;;;;0.30;0.10;;;;;;;2.78;92.60;100921.31;5418622;26;20511;-49
2024/04/22 02:59:51;;;;;;;0.30;0.10;;;;;;;2.56;92.26;100921.00;5418438;26;20520;-48
2024/04/22 03:02:17;;;;;;;0.30;0.10;;;;;;;2.52;92.00;100915.72;5392919;26;20914;-48
2024/04/22 03:04:47;;;;;;;0.30;0.20;;;;;;;2.48;92.37;100906.03;5382949;26;20469;-47
2024/04/22 03:07:14;;;;;;;0.30;0.10;;;;;;;2.56;92.17;100907.00;5409788;26;20479;-48
2024/04/22 03:09:43;;;;;;;0.30;0.10;;;;;;;2.54;92.42;100906.13;5418464;26;20507;-48
2024/04/22 03:12:10;;;;;;;0.30;0.13;;;;;;;2.38;92.48;100900.66;5418539;26;20466;-47
2024/04/22 03:14:36;;;;;;;0.23;0.10;;;;;;;2.44;92.66;100905.09;5419118;26;20475;-47
2024/04/22 03:17:03;;;;;;;0.30;0.10;;;;;;;2.29;92.87;100903.13;5418955;26;20463;-48
2024/04/22 03:19:30;;;;;;;0.20;0.10;;;;;;;2.19;93.09;100905.59;5418435;26;20471;-47
2024/04/22 03:21:57;;;;;;;0.30;0.10;;;;;;;2.32;93.19;100899.66;5418500;26;20475;-48
2024/04/22 03:24:23;;;;;;;0.20;0.10;;;;;;;2.22;92.74;100897.78;5418557;26;20508;-47
2024/04/22 03:26:50;;;;;;;0.20;0.10;;;;;;;2.35;92.35;100897.13;5418343;26;20535;-48
2024/04/22 03:29:16;;;;;;;0.30;0.10;;;;;;;2.48;92.51;100895.56;5418138;26;20459;-48
2024/04/22 03:31:43;;;;;;;0.20;0.10;;;;;;;2.50;91.90;100894.69;5418294;26;20459;-48
2024/04/22 03:34:10;;;;;;;0.20;0.13;;;;;;;2.51;91.08;100893.84;5418294;26;20483;-47
2024/04/22 03:36:37;;;;;;;0.20;0.20;;;;;;;2.68;91.51;100900.19;5418146;26;20507;-47
2024/04/22 03:39:03;;;;;;;0.30;0.20;;;;;;;2.66;90.60;100894.03;5418273;26;20511;-47
2024/04/22 03:41:30;;;;;;;0.30;0.10;;;;;;;2.88;89.22;100897.84;5417926;26;20463;-48
2024/04/22 03:43:56;;;;;;;0.20;0.10;;;;;;;2.81;89.92;100895.09;5417954;26;20857;-48
2024/04/22 03:51:53;;;;;;;0.20;0.10;;;;;;;2.27;91.94;100885.63;5417811;26;20864;-48
2024/04/22 03:54:20;;;;;;;0.20;0.10;;;;;;;2.18;92.15;100881.09;5417930;26;20475;-48
2024/04/22 03:56:46;;;;;;;0.30;0.20;;;;;;;2.17;92.49;100884.59;5417954;26;20463;-49
2024/04/22 03:59:13;;;;;;;0.30;0.10;;;;;;;2.17;92.82;100887.22;5417701;26;20483;-48
2024/04/22 04:01:39;;;;;;;0.30;0.20;;;;;;;2.26;93.12;100894.34;5417868;26;20551;-48
2024/04/22 04:04:06;;;;;;;0.30;0.10;;;;;;;2.23;93.49;100896.94;5417475;26;20483;-49
2024/04/22 04:06:33;;;;;;;0.30;0.10;;;;;;;2.19;93.21;100893.34;5417605;26;20580;-48
2024/04/22 04:08:59;;;;;;;0.30;0.10;;;;;;;2.12;93.05;100896.75;5417878;26;20463;-48
2024/04/22 04:11:33;;;;;;;0.23;0.10;;;;;;;1.99;92.94;100900.94;5417718;26;20519;-49
2024/04/22 04:13:59;;;;;;;0.27;0.10;;;;;;;1.90;92.74;100903.38;5417660;26;20475;-47
2024/04/22 04:16:26;;;;;;;0.30;0.20;;;;;;;1.88;93.37;100904.22;5417548;26;20463;-48
2024/04/22 04:18:53;;;;;;;0.30;0.20;;;;;;;1.98;94.07;100907.03;5417695;26;21168;-48
2024/04/22 04:21:19;;;;;;;0.20;0.10;;;;;;;1.96;94.36;100911.38;5416916;26;20466;-48
2024/04/22 04:23:46;;;;;;;0.20;0.10;;;;;;;1.83;93.83;100909.41;5417540;26;20471;-47
2024/04/22 04:26:13;;;;;;;0.20;0.10;;;;;;;1.90;93.36;100911.25;5415732;26;20462;-47
2024/04/22 04:28:39;;;;;;;0.30;0.10;;;;;;;2.02;93.95;100914.06;5417645;26;20459;-48
2024/04/22 04:31:06;;;;;;;0.20;0.10;;;;;;;2.09;93.67;100909.81;5417157;26;20519;-48
2024/04/22 04:33:33;;;;;;;0.20;0.10;;;;;;;2.18;93.93;100911.69;5417168;26;20467;-49
2024/04/22 04:36:01;;;;;;;0.20;0.10;;;;;;;2.25;93.64;100908.31;5417160;26;20471;-47
2024/04/22 04:38:29;;;;;;;0.30;0.20;;;;;;;2.28;93.82;100913.59;5417304;26;20471;-48
2024/04/22 04:40:55;;;;;;;0.20;0.10;;;;;;;2.34;94.09;100911.97;5417228;26;20459;-49
2024/04/22 04:43:24;;;;;;;0.20;0.10;;;;;;;2.38;93.96;100910.28;5416970;26;21019;-47
2024/04/22 04:45:52;;;;;;;0.20;0.10;;;;;;;2.46;94.07;100919.09;5417083;26;20519;-48
2024/04/22 04:48:19;;;;;;;0.20;0.20;;;;;;;2.38;94.04;100920.75;5417039;26;20511;-47
2024/04/22 04:50:46;;;;;;;0.30;0.20;;;;;;;2.40;93.77;100919.03;5416845;26;20487;-48
2024/04/22 04:53:13;;;;;;;0.20;0.10;;;;;;;2.47;93.96;100915.66;5416989;26;20519;-49
2024/04/22 04:55:40;;;;;;;0.20;0.10;;;;;;;2.52;93.87;100920.97;5416963;26;20463;-48
2024/04/22 04:58:07;;;;;;;0.20;0.10;;;;;;;2.50;93.63;100912.19;5416904;26;20577;-47
2024/04/22 05:00:34;;;;;;;0.20;0.10;;;;;;;2.67;93.87;100916.81;5416824;26;20511;-47
2024/04/22 05:03:01;;;;;;;0.20;0.10;;;;;;;2.37;93.06;100921.63;5416471;26;20599;-47
2024/04/22 05:05:27;;;;;;;0.20;0.10;;;;;;;2.56;94.79;100921.00;5416894;26;20544;-48
2024/04/22 05:07:55;;;;;;;0.20;0.10;;;;;;;2.70;93.73;100922.94;5416733;26;20509;-47
2024/04/22 05:10:22;;;;;;;0.20;0.10;;;;;;;2.87;93.19;100924.03;5416368;26;21100;-47
2024/04/22 05:12:49;;;;;;;0.20;0.17;;;;;;;2.84;92.73;100926.63;5416544;26;20519;-47
2024/04/22 05:15:20;;;;;;;0.20;0.10;;;;;;;2.96;92.52;100922.41;5416465;26;20474;-48
2024/04/22 05:17:46;;;;;;;0.30;0.10;;;;;;;3.06;91.99;100920.78;5416302;26;20512;-48
2024/04/22 05:20:13;;;;;;;0.20;0.10;;;;;;;3.11;91.88;100918.22;5416256;26;20478;-48
2024/04/22 05:22:40;;;;;;;0.20;0.20;;;;;;;3.15;91.74;100920.00;5416321;26;20471;-48
2024/04/22 05:25:06;;;;;;;0.20;0.10;;;;;;;3.20;92.07;100923.59;5416221;26;20547;-47
2024/04/22 05:27:34;;;;;;;0.20;0.10;;;;;;;3.18;91.33;100917.44;5416330;26;20511;-47
2024/04/22 05:30:01;;;;;;;0.20;0.10;;;;;;;3.09;91.52;100918.19;5416349;26;21056;-47
2024/04/22 05:32:27;;;;;;;0.30;0.20;;;;;;;3.24;92.23;100907.88;5416278;26;20467;-47
2024/04/22 05:37:39;;;;;;;0.20;0.10;;;;;;;3.35;92.13;100922.88;5418851;26;20474;-48
2024/04/22 05:40:06;;;;;;;0.20;0.20;;;;;;;3.86;91.97;100923.41;5419743;26;20467;-47
2024/04/22 05:42:32;;;;;;;0.20;0.10;;;;;;;4.04;90.87;100917.41;5419634;26;20459;-48
2024/04/22 05:44:59;;;;;;;0.20;0.10;;;;;;;4.31;89.26;100918.47;5419510;26;20532;-47
2024/04/22 05:47:25;;;;;;;0.30;0.10;;;;;;;4.46;88.46;100918.56;5419594;26;20459;-47
2024/04/22 05:49:52;;;;;;;0.30;0.20;;;;;;;4.78;87.17;100915.22;5419346;26;20534;-48
2024/04/22 05:52:21;;;;;;;0.27;0.13;;;;;;;5.28;85.57;100907.53;5419337;26;20523;-47
2024/04/22 05:54:47;;;;;;;0.20;0.10;;;;;;;5.06;83.94;100915.34;5402865;26;20474;-48
2024/04/22 05:57:14;;;;;;;0.30;0.20;;;;;;;4.89;84.39;100914.41;5431157;26;20975;-48
2024/04/22 05:59:40;;;;;;;0.30;0.17;;;;;;;5.00;85.27;100909.19;5395451;26;20523;-48
2024/04/22 06:02:07;;;;;;;0.30;0.10;;;;;;;4.88;84.70;100910.03;5419456;26;20462;-49
2024/04/22 06:04:33;;;;;;;0.30;0.10;;;;;;;4.97;85.10;100907.44;5418968;26;20525;-48
2024/04/22 06:07:00;;;;;;;0.30;0.20;;;;;;;5.02;83.35;100910.09;5419177;26;20466;-52
2024/04/22 06:09:26;;;;;;;0.30;0.20;;;;;;;5.40;82.61;100904.06;5419187;26;20849;-48
2024/04/22 06:11:53;;;;;;;0.30;0.20;;;;;;;5.31;83.43;100910.19;5383814;26;21060;-48
2024/04/22 06:14:40;;;;;;;0.30;0.20;;;;;;;5.42;82.38;100910.22;5419024;26;20556;-48
2024/04/22 06:17:06;;;;;;;0.30;0.10;;;;;;;5.27;82.66;100906.66;5395232;26;20483;-48
2024/04/22 06:19:33;;;;;;;0.30;0.20;;;;;;;5.20;82.92;100912.78;5419080;26;20526;-47
2024/04/22 06:21:59;;;;;;;0.30;0.20;;;;;;;5.06;82.54;100915.34;5418886;26;20474;-50
2024/04/22 06:24:26;;;;;;;0.30;0.13;;;;;;;5.15;83.19;100913.66;5418832;26;20527;-48
2024/04/22 06:26:52;;;;;;;0.30;0.20;;;;;;;5.33;83.06;100911.06;5418793;26;20532;-48
2024/04/22 06:29:19;;;;;;;0.30;0.20;;;;;;;5.32;83.17;100920.72;5417099;26;20573;-47
2024/04/22 06:31:45;;;;;;;0.30;0.17;;;;;;;5.22;82.51;100911.06;5418495;26;20475;-48
2024/04/22 06:34:12;;;;;;;0.30;0.20;;;;;;;5.47;81.94;100906.69;5418758;26;20483;-49
2024/04/22 06:36:38;;;;;;;0.30;0.30;;;;;;;5.56;81.87;100895.31;5418545;26;21084;-48
2024/04/22 06:39:05;;;;;;;0.30;0.10;;;;;;;5.59;83.14;100901.44;5418761;26;20463;-47
2024/04/22 06:41:32;;;;;;;0.30;0.20;;;;;;;5.92;81.34;100900.66;5411447;26;20468;-48
2024/04/22 06:43:58;;;;;;;0.30;0.20;;;;;;;6.04;79.84;100907.69;5402328;26;20471;-49
2024/04/22 06:46:25;;;;;;;0.30;0.10;;;;;;;5.98;80.34;100902.41;5418499;26;20470;-48
2024/04/22 06:48:51;;;;;;;0.30;0.20;;;;;;;6.17;78.79;100898.88;5417104;26;20467;-49
2024/04/22 06:51:18;;;;;;;0.30;0.20;;;;;;;6.31;76.35;100890.97;5417982;26;20531;-48
2024/04/22 06:53:45;;;;;;;0.30;0.20;;;;;;;6.53;76.91;100891.78;5418593;26;20527;-48
2024/04/22 06:56:12;;;;;;;0.30;0.10;;;;;;;6.77;74.04;100886.44;5418322;26;20527;-50
2024/04/22 06:58:38;;;;;;;0.30;0.20;;;;;;;6.64;74.01;100890.00;5418718;26;20515;-48
2024/04/22 07:01:05;;;;;;;0.30;0.13;;;;;;;6.51;72.89;100889.13;5394747;26;20471;-48
2024/04/22 07:03:32;;;;;;;0.30;0.20;;;;;;;6.98;72.62;100887.22;5397841;26;20484;-48
2024/04/22 07:05:58;;;;;;;0.30;0.20;;;;;;;6.72;72.86;100887.34;5415236;26;21074;-48
2024/04/22 07:08:25;;;;;;;0.40;0.40;;;;;;;6.86;73.17;100884.66;5418378;26;20823;-48
2024/04/22 07:10:51;;;;;;;0.30;0.20;;;;;;;7.15;72.24;100890.69;5418113;26;20467;-49
2024/04/22 07:13:18;;;;;;;0.30;0.10;;;;;;;7.08;72.26;100895.09;5418262;26;20574;-48
2024/04/22 07:15:45;;;;;;;0.30;0.20;;;;;;;7.08;71.14;100895.09;5416419;26;20479;-50
2024/04/22 07:18:11;;;;;;;0.30;0.20;;;;;;;7.49;70.42;100885.19;5418226;26;20467;-48
2024/04/22 07:20:38;;;;;;;0.30;0.20;;;;;;;7.42;71.17;100885.25;5418152;26;20524;-48
2024/04/22 07:23:04;;;;;;;0.30;0.20;;;;;;;7.38;68.57;100880.84;5417781;26;20569;-49
2024/04/22 07:25:31;;;;;;;0.30;0.20;;;;;;;7.42;69.22;100885.25;5418045;26;20523;-47
2024/04/22 07:27:58;;;;;;;0.30;0.20;;;;;;;7.44;70.91;100887.88;5418014;26;20807;-48
2024/04/22 07:30:26;;;;;;;0.40;0.30;;;;;;;8.25;69.47;100884.59;5417584;26;20523;-48
2024/04/22 07:32:53;;;;;;;0.30;0.20;;;;;;;8.10;67.88;100887.38;5417903;26;20483;-46
2024/04/22 07:35:20;;;;;;;0.30;0.20;;;;;;;8.08;68.50;100889.13;5417674;26;20831;-46
2024/04/22 07:37:47;;;;;;;0.30;0.20;;;;;;;7.82;67.34;100892.03;5417928;26;20531;-46
2024/04/22 07:40:18;;;;;;;0.30;0.20;;;;;;;8.09;68.41;100890.91;5417591;26;21127;-46
2024/04/22 07:42:46;;;;;;;0.30;0.20;;;;;;;8.33;67.26;100903.91;5417637;26;20792;-47
2024/04/22 07:45:13;;;;;;;0.30;0.20;;;;;;;8.38;66.33;100896.84;5417423;26;20467;-47
2024/04/22 07:47:40;;;;;;;0.30;0.20;;;;;;;8.25;66.85;100895.19;5417695;26;20479;-46
2024/04/22 07:50:07;;;;;;;0.30;0.20;;;;;;;8.75;67.36;100894.66;5417473;26;20487;-46
2024/04/22 07:52:34;;;;;;;0.30;0.23;;;;;;;8.47;65.59;100888.78;5415401;26;20483;-47
2024/04/22 07:55:04;;;;;;;0.30;0.20;;;;;;;8.95;64.00;100891.81;5396419;26;20539;-48
2024/04/22 07:57:31;;;;;;;0.30;0.20;;;;;;;9.05;63.84;100898.75;5417384;26;20554;-46
2024/04/22 07:59:58;;;;;;;0.30;0.20;;;;;;;8.84;65.09;100893.69;5417066;26;20527;-47
2024/04/22 08:02:25;;;;;;;0.30;0.20;;;;;;;9.01;64.12;100897.00;5417233;26;20471;-46
2024/04/22 08:04:51;;;;;;;0.30;0.20;;;;;;;9.01;64.14;100897.00;5417699;26;20487;-49
2024/04/22 08:07:19;;;;;;;0.30;0.20;;;;;;;9.15;62.14;100891.53;5417301;26;20530;-49
2024/04/22 08:09:46;;;;;;;0.30;0.20;;;;;;;8.90;59.53;100897.13;5417391;26;20471;-49
2024/04/22 08:12:13;;;;;;;0.30;0.20;;;;;;;9.36;59.38;100893.91;5417037;26;20531;-49
2024/04/22 08:14:40;;;;;;;0.30;0.20;;;;;;;9.56;58.49;100890.97;5417333;26;21074;-49
2024/04/22 08:17:08;;;;;;;0.30;0.20;;;;;;;9.47;58.78;100893.78;5417275;26;20600;-50
2024/04/22 08:19:35;;;;;;;0.30;0.20;;;;;;;8.88;58.45;100895.41;5417415;26;21019;-50
2024/04/22 08:22:01;;;;;;;0.30;0.20;;;;;;;8.90;59.22;100899.78;5417096;26;20475;-49
2024/04/22 08:24:28;;;;;;;0.30;0.20;;;;;;;9.48;60.50;100898.19;5417152;26;20475;-50
2024/04/22 08:26:55;;;;;;;0.30;0.20;;;;;;;9.53;61.37;100906.06;5417905;26;20815;-50
2024/04/22 08:29:23;;;;;;;0.30;0.20;;;;;;;9.36;58.44;100896.56;5417150;26;20494;-50
2024/04/22 08:31:49;;;;;;;0.30;0.20;;;;;;;9.33;57.30;100909.88;5416714;26;20528;-51
2024/04/22 08:34:16;;;;;;;0.30;0.20;;;;;;;9.82;56.52;100893.22;5416975;26;20483;-50
2024/04/22 08:36:42;;;;;;;0.30;0.20;;;;;;;9.67;57.20;100894.34;5416950;26;20475;-50
2024/04/22 08:39:10;;;;;;;0.30;0.20;;;;;;;10.07;56.30;100891.03;5415353;26;20467;-50
2024/04/22 08:41:37;;;;;;;0.30;0.20;;;;;;;10.01;56.33;100886.72;5416909;26;20467;-50
2024/04/22 08:44:04;;;;;;;0.30;0.20;;;;;;;9.99;56.23;100882.31;5417081;26;20474;-50
2024/04/22 08:46:30;;;;;;;0.30;0.20;;;;;;;10.00;55.59;100889.38;5416702;26;20472;-50
2024/04/22 08:48:58;;;;;;;0.30;0.20;;;;;;;9.72;55.88;100887.16;5417009;26;20483;-50
2024/04/22 08:51:25;;;;;;;0.30;0.20;;;;;;;9.98;56.80;100889.41;5416599;26;20528;-50
2024/04/22 08:53:52;;;;;;;0.30;0.20;;;;;;;10.24;55.45;100893.44;5416701;26;20864;-51
2024/04/22 08:56:24;;;;;;;0.30;0.20;;;;;;;9.68;54.33;100885.47;5416582;26;20483;-50
2024/04/22 08:58:51;;;;;;;0.30;0.20;;;;;;;9.80;54.83;100887.06;5416679;26;20487;-50
2024/04/22 09:01:18;;;;;;;0.30;0.20;;;;;;;10.18;54.20;100877.59;5416398;26;20471;-51
2024/04/22 09:03:44;;;;;;;0.30;0.20;;;;;;;9.60;54.26;100875.88;5416410;26;20564;-50
2024/04/22 09:06:11;;;;;;;0.30;0.20;;;;;;;10.19;53.93;100868.72;5392382;26;20483;-50
2024/04/22 09:08:46;;;;;;;0.30;0.20;;;;;;;9.91;53.12;100869.19;5416527;26;21002;-50
2024/04/22 09:11:17;;;;;;;0.30;0.20;;;;;;;10.66;52.76;100862.53;5392951;26;21011;-50
2024/04/22 09:14:04;;;;;;;0.30;0.20;;;;;;;10.78;52.64;100856.09;5416232;26;20470;-50
2024/04/22 09:16:35;;;;;;;0.30;0.20;;;;;;;10.47;52.90;100869.13;5416458;26;20475;-50
2024/04/22 09:19:02;;;;;;;0.30;0.20;;;;;;;10.34;53.92;100866.69;5416244;26;20517;-49
2024/04/22 09:21:35;;;;;;;0.30;0.20;;;;;;;10.24;52.87;100859.78;5416157;26;20471;-52
2024/04/22 09:24:02;;;;;;;0.30;0.20;;;;;;;10.30;55.65;100866.78;5416108;26;20591;-50
2024/04/22 09:26:29;;;;;;;0.30;0.20;;;;;;;10.47;55.09;100866.47;5416267;26;20537;-50
2024/04/22 09:29:00;;;;;;;0.30;0.20;;;;;;;9.66;58.70;100873.13;5416127;26;20995;-49
2024/04/22 09:31:29;;;;;;;0.30;0.20;;;;;;;9.58;60.16;100875.00;5415795;26;20538;-50
2024/04/22 09:33:56;;;;;;;0.30;0.20;;;;;;;9.57;62.38;100875.91;5416099;26;20487;-50
2024/04/22 09:36:26;;;;;;;0.30;0.20;;;;;;;9.47;64.59;100880.50;5416005;26;20547;-49
2024/04/22 09:38:53;;;;;;;0.30;0.20;;;;;;;9.37;65.11;100870.91;5416154;26;20588;-50
2024/04/22 09:41:20;;;;;;;0.30;0.20;;;;;;;9.38;70.10;100881.50;5415831;26;20581;-50
2024/04/22 09:43:51;;;;;;;0.30;0.20;;;;;;;9.26;63.71;100881.66;5415813;26;20894;-50
2024/04/22 09:46:26;;;;;;;0.30;0.20;;;;;;;9.03;65.60;100886.38;5415791;26;20597;-50
2024/04/22 09:48:53;;;;;;;0.30;0.20;;;;;;;8.79;67.46;100884.94;5415699;26;20531;-49
2024/04/22 09:51:22;;;;;;;0.30;0.20;;;;;;;7.91;73.85;100892.81;5415362;26;20467;-50
2024/04/22 09:53:50;;;;;;;0.30;0.20;;;;;;;7.47;80.44;100887.84;5415604;26;21019;-50
2024/04/22 09:56:30;;;;;;;0.30;0.20;;;;;;;7.09;83.10;100888.03;5415271;26;20531;-51
2024/04/22 09:58:59;;;;;;;0.30;0.20;;;;;;;6.58;85.82;100887.38;5415448;26;20467;-50
2024/04/22 10:01:26;;;;;;;0.30;0.20;;;;;;;6.73;85.43;100883.81;5415384;26;20475;-51
2024/04/22 10:03:53;;;;;;;0.30;0.20;;;;;;;6.82;85.01;100881.13;5415158;26;21023;-51
2024/04/22 10:06:23;;;;;;;0.30;0.20;;;;;;;6.66;85.36;100879.41;5415369;26;20540;-50
2024/04/22 10:08:50;;;;;;;0.30;0.20;;;;;;;6.78;86.21;100880.25;5415244;26;20475;-51
2024/04/22 10:11:16;;;;;;;0.30;0.20;;;;;;;7.00;85.86;100873.13;5415350;26;20567;-51
2024/04/22 10:13:43;;;;;;;0.30;0.20;;;;;;;7.15;85.03;100877.47;5413458;26;20482;-50
2024/04/22 10:16:13;;;;;;;0.30;0.20;;;;;;;7.16;84.83;100873.94;5415475;26;20538;-51
2024/04/22 10:18:47;;;;;;;0.30;0.20;;;;;;;7.14;85.00;100873.06;5415266;26;20531;-51
2024/04/22 10:21:14;;;;;;;0.30;0.20;;;;;;;7.12;82.02;100872.16;5415240;26;20471;-51
2024/04/22 10:23:41;;;;;;;0.30;0.20;;;;;;;7.06;81.94;100872.22;5417525;26;21090;-51
2024/04/22 10:26:20;;;;;;;0.30;0.10;;;;;;;7.28;81.90;100867.69;5418774;26;20546;-51
2024/04/22 10:28:49;;;;;;;0.30;0.20;;;;;;;7.47;81.61;100858.75;5418657;26;20860;-51
2024/04/22 10:31:20;;;;;;;0.30;0.20;;;;;;;7.52;80.05;100867.53;5418664;26;20474;-51
2024/04/22 10:33:46;;;;;;;0.30;0.20;;;;;;;7.41;77.72;100867.63;5417155;26;20517;-51
2024/04/22 10:36:13;;;;;;;0.30;0.20;;;;;;;7.42;78.91;100868.50;5416395;26;20559;-51
2024/04/22 10:38:40;;;;;;;0.30;0.20;;;;;;;7.34;79.39;100872.94;5418390;26;20471;-51
2024/04/22 10:41:07;;;;;;;0.30;0.20;;;;;;;8.04;79.39;100867.13;5418789;26;20475;-50
2024/04/22 10:43:34;;;;;;;0.30;0.20;;;;;;;8.13;76.21;100867.03;5418400;26;20475;-51
2024/04/22 10:46:01;;;;;;;0.30;0.20;;;;;;;8.15;74.53;100862.59;5418476;26;20475;-51
2024/04/22 10:48:27;;;;;;;0.30;0.20;;;;;;;8.46;74.94;100873.78;5418242;26;21023;-51
2024/04/22 10:50:55;;;;;;;0.30;0.20;;;;;;;8.85;73.77;100863.63;5418374;26;21018;-51
2024/04/22 10:53:22;;;;;;;0.30;0.20;;;;;;;8.92;75.59;100859.16;5416673;26;21027;-51
2024/04/22 10:55:48;;;;;;;0.30;0.20;;;;;;;9.11;73.56;100856.22;5418174;26;20482;-51
2024/04/22 10:58:15;;;;;;;0.30;0.20;;;;;;;8.94;75.10;100852.94;5418447;26;20490;-51
2024/04/22 11:00:45;;;;;;;0.30;0.20;;;;;;;9.01;77.15;100851.06;5418254;26;20591;-51
2024/04/22 11:03:16;;;;;;;0.30;0.20;;;;;;;9.31;78.74;100842.66;5417987;26;20604;-51
2024/04/22 11:05:46;;;;;;;0.30;0.20;;;;;;;9.47;79.40;100838.91;5418185;26;20455;-51
2024/04/22 11:08:15;;;;;;;0.30;0.20;;;;;;;9.78;78.98;100841.97;5418074;26;20475;-51
2024/04/22 11:10:42;;;;;;;0.30;0.20;;;;;;;9.86;73.41;100832.97;5418104;26;20802;-51
2024/04/22 11:13:09;;;;;;;0.30;0.20;;;;;;;10.07;69.58;100837.94;5417917;26;20479;-51
2024/04/22 11:15:36;;;;;;;0.30;0.20;;;;;;;9.98;70.32;100827.44;5411153;26;20515;-51
2024/04/22 11:18:06;;;;;;;0.30;0.20;;;;;;;10.42;69.09;100823.16;5401632;26;21027;-51
2024/04/22 11:20:34;;;;;;;0.30;0.20;;;;;;;10.01;71.79;100816.81;5418020;26;20471;-51
2024/04/22 11:23:01;;;;;;;0.30;0.20;;;;;;;9.86;73.96;100807.28;5417875;26;20471;-51
2024/04/22 11:25:28;;;;;;;0.30;0.20;;;;;;;10.14;75.86;100812.13;5417953;26;21007;-51
2024/04/22 11:27:55;;;;;;;0.30;0.20;;;;;;;10.05;75.30;100803.44;5418097;26;20467;-51
2024/04/22 11:30:22;;;;;;;0.30;0.20;;;;;;;9.78;73.60;100810.09;5418043;26;20479;-51
2024/04/22 11:32:49;;;;;;;0.30;0.20;;;;;;;9.85;73.10;100809.97;5417828;26;20852;-49
2024/04/22 11:35:16;;;;;;;0.30;0.20;;;;;;;10.29;70.09;100799.47;5416922;26;20475;-49
2024/04/22 11:37:43;;;;;;;0.30;0.20;;;;;;;10.35;66.99;100799.34;5418013;26;20511;-49
2024/04/22 11:40:09;;;;;;;0.30;0.20;;;;;;;10.41;67.89;100800.13;5417772;26;20471;-48